EBCI - Charleroi/Gosselies, Belgium
Distance de la station: NE 18km
Mise à jour: 24/04/2024 04:20
partiellement nuageux
partiellement nuageux
 Wind from ONO
Vent: ONO 11 km/h
Température: 4°C
Température ressentie: 1°C
Point de rosée: 3°C
Humidité: 93%
Baromètre: 1014 hPa
Ciel: partiellement nuageux
Visibilité: 10 km
Détails du ciel: quelques nuages 213 m
partiellement nuageux 853 m
2024/04/24 02:20 EBCI 240220Z 29006KT 260V340 9999 FEW007 SCT028 04/03 Q1014 NOSIG
EBFS - Florennes, Belgium
Distance de la station: ESE 31km
Mise à jour: 24/04/2024 04:13
plutôt nuageux
plutôt nuageux
 Wind from ONO
Vent: ONO 11 km/h
Température: 4°C
Température ressentie: 1°C
Point de rosée: 3°C
Humidité: 93%
Baromètre: 1013 hPa
Ciel: plutôt nuageux
Visibilité: 10 km
Détails du ciel: quelques nuages 183 m
partiellement nuageux 1097 m
plutôt nuageux 4877 m
2024/04/24 02:13 EBFS 240213Z AUTO 30006KT 9999 FEW006/// SCT036/// BKN160/// 04/03 Q1013 BLU
EBCV - Chievres, Belgium
Distance de la station: NO 40km
Mise à jour: 24/04/2024 03:55
plutôt nuageux
plutôt nuageux
 Wind from O
Vent: O 11 km/h
Température: 5°C
Température ressentie: 2°C
Point de rosée: 4°C
Humidité: 93%
Baromètre: 1015 hPa
Ciel: plutôt nuageux
Visibilité: 10 km
Détails du ciel: quelques nuages 610 m
partiellement nuageux 1250 m
plutôt nuageux 2438 m
2024/04/24 01:55 EBCV 240155Z AUTO 28006KT 9999 FEW020/// SCT041/// BKN080/// 05/04 Q1015 BLU
 
EBBE - Beauvechain, Belgium
Distance de la station: NE 57km
Mise à jour: 24/04/2024 03:55
couvert
couvert
 Wind from ONO
Vent: ONO 9 km/h
Température: 5°C
Température ressentie: 3°C
Point de rosée: 4°C
Humidité: 93%
Baromètre: 1013 hPa
Ciel: couvert
Visibilité: 10 km
Détails du ciel: partiellement nuageux 518 m
plutôt nuageux 853 m
couvert 1494 m
2024/04/24 01:55 EBBE 240155Z AUTO 29005KT 9999 SCT017/// BKN028/// OVC049/// 05/04 Q1013 WHT
EBBR - Brussels National, Belgium
Distance de la station: NNE 63km
Mise à jour: 24/04/2024 04:20
pluie légère, Showers, plutôt nuageux
pluie légère, Showers, plutôt nuageux
 Wind from ONO
Vent: ONO 11 km/h
Température: 5°C
Température ressentie: 2°C
Point de rosée: 3°C
Humidité: 87%
Baromètre: 1014 hPa
Résumé: pluie légère, Showers
Ciel: plutôt nuageux
Visibilité: 10 km
Détails du ciel: quelques nuages 671 m
plutôt nuageux 1006 m
2024/04/24 02:20 EBBR 240220Z 30006KT 280V340 9999 -SHRA FEW022 BKN033 05/03 Q1014 NOSIG
LFQI - Cambrai/Epinoy, France
Distance de la station: O 82km
Mise à jour: 29/06/2012 12:30
NOT Current

 Wind from SO
Vent: SO 17 km/h
Température: 18°C
Point de rosée: 14°C
Humidité: 78%
Baromètre: 1009 hPa
2012/06/29 10:30 LFQI 291030Z AUTO 22009KT //// // ///////// 18/14 Q1009
 
LFQQ - Lille/Lesquin, France
Distance de la station: ONO 86km
Mise à jour: 24/04/2024 04:30
pluie légère, couvert
pluie légère, couvert
 Wind from ONO
Vent: ONO 13 km/h
Température: 5°C
Température ressentie: 2°C
Point de rosée: 4°C
Humidité: 93%
Baromètre: 1015 hPa
Résumé: pluie légère
Ciel: couvert
Visibilité: 9 km
Détails du ciel: plutôt nuageux 610 m
plutôt nuageux 945 m
couvert 1158 m
2024/04/24 02:30 LFQQ 240230Z AUTO 29007KT 260V320 9000 -RA BKN020 BKN031 OVC038 05/04 Q1015 TEMPO VRB15G25KT 1200 SHRA SCT008 BKN012TCU
EBLG - Bierset/Liege, Belgium
Distance de la station: ENE 89km
Mise à jour: 24/04/2024 04:20
plutôt nuageux
plutôt nuageux
 Wind from ONO
Vent: ONO 13 km/h
Température: 4°C
Température ressentie: 1°C
Point de rosée: 3°C
Humidité: 93%
Baromètre: 1013 hPa
Ciel: plutôt nuageux
Visibilité: 10 km
Détails du ciel: partiellement nuageux 274 m
plutôt nuageux 488 m
2024/04/24 02:20 EBLG 240220Z 29007KT 9999 SCT009 BKN016 04/03 Q1013 TEMPO BKN008
EBDT - Schaffen, Belgium
Distance de la station: NE 93km
Mise à jour: 24/04/2024 03:55
couvert
couvert
 Wind from O
Vent: O 11 km/h
Température: 5°C
Température ressentie: 2°C
Point de rosée: 3°C
Humidité: 87%
Baromètre: 1013 hPa
Ciel: couvert
Visibilité: 10 km
Détails du ciel: quelques nuages 884 m
couvert 1280 m
2024/04/24 01:55 EBDT 240155Z AUTO 28006KT 9999 FEW029/// OVC042/// 05/03 Q1013 BLU
 
EBAW - Antwerp/Deurne, Belgium
Distance de la station: N 96km
Mise à jour: 24/04/2024 04:20
couvert
couvert
 Wind from NNO
Vent: NNO 9 km/h
Température: 6°C
Température ressentie: 4°C
Point de rosée: 2°C
Humidité: 76%
Baromètre: 1014 hPa
Ciel: couvert
Visibilité: 10 km
Détails du ciel: plutôt nuageux 640 m
couvert 914 m
2024/04/24 02:20 EBAW 240220Z AUTO 33005KT 9999 // BKN021/// OVC030/// 06/02 Q1014
LFAQ - Bray, France
Distance de la station: OSO 119km
Mise à jour: 24/04/2024 04:00
plutôt nuageux
plutôt nuageux
 Wind from NO
Vent: NO 15 km/h
Température: 5°C
Température ressentie: 2°C
Point de rosée: 4°C
Humidité: 93%
Baromètre: 1016 hPa
Ciel: plutôt nuageux
Visibilité: 10 km
Détails du ciel: partiellement nuageux 518 m
plutôt nuageux 732 m
2024/04/24 02:00 LFAQ 240200Z AUTO 31008KT 9999 SCT017 BKN024 05/04 Q1016
LFSR - Reims/Champagne, France
Distance de la station: S 120km
Mise à jour: 16/04/2012 09:00
NOT Current
partiellement nuageux
partiellement nuageux
 Wind from N
Vent: N 17 km/h
Température: 4°C
Température ressentie: 0°C
Point de rosée: 0°C
Humidité: 75%
Baromètre: 1022 hPa
Ciel: partiellement nuageux
Visibilité: 10 km
2012/04/16 07:00 LFSR 160700Z AUTO 01009KT 340V070 9999 NSC 04/00 Q1022
 
EHWO - Woensdrecht, Netherlands
Distance de la station: N 122km
Mise à jour: 24/04/2024 04:25
partiellement nuageux
partiellement nuageux
 Wind from O
Vent: O 7 km/h
Température: 4°C
Température ressentie: 2°C
Point de rosée: 1°C
Humidité: 81%
Baromètre: 1013 hPa
Ciel: partiellement nuageux
Visibilité: 10 km
Détails du ciel: partiellement nuageux 1737 m
2024/04/24 02:25 EHWO 240225Z AUTO 28004KT 240V350 9999 SCT057 04/01 Q1013 BLU
EHBK - Zuid-Limburg, Netherlands
Distance de la station: ENE 123km
Mise à jour: 24/04/2024 04:25
plutôt nuageux
plutôt nuageux
 Wind from ONO
Vent: ONO 7 km/h
Température: 5°C
Température ressentie: 3°C
Point de rosée: 4°C
Humidité: 93%
Baromètre: 1012 hPa
Ciel: plutôt nuageux
Visibilité: 10 km
Détails du ciel: quelques nuages 427 m
partiellement nuageux 549 m
plutôt nuageux 762 m
2024/04/24 02:25 EHBK 240225Z AUTO 29004KT 240V330 9999 FEW014 SCT018 BKN025 05/04 Q1012
EBBL - Kleine-Brogel, Belgium
Distance de la station: NE 124km
Mise à jour: 24/04/2024 04:13
partiellement nuageux
partiellement nuageux
 Wind from varies
Vent: varies 4 km/h
Température: 3°C
Point de rosée: 2°C
Humidité: 93%
Baromètre: 1012 hPa
Ciel: partiellement nuageux
Visibilité: 10 km
Détails du ciel: quelques nuages 945 m
partiellement nuageux 1524 m
2024/04/24 02:13 EBBL 240213Z AUTO VRB02KT 9999 FEW031/// SCT050/// 03/02 Q1012 BLU
 
EBLB - Elsenborn, Belgium
Distance de la station: E 135km
Mise à jour: 24/04/2024 04:24
Light drizzle, couvert
Light drizzle, couvert
 Wind from NO
Vent: NO 7 km/h
Température: 1°C
Température ressentie: -2°C
Point de rosée: 1°C
Humidité: 100%
Baromètre: 1010 hPa
Résumé: Light Drizzle
Ciel: couvert
Visibilité: 9 km
Détails du ciel: couvert 183 m
2024/04/24 02:24 EBLB 240224Z AUTO 31004KT 9000 -DZ OVC006/// 01/01 Q1010 YLO
EBOS - Oostende Airport, Belgium
Distance de la station: NO 136km
Mise à jour: 24/04/2024 04:20
pluie légère, Showers, plutôt nuageux
pluie légère, Showers, plutôt nuageux
 Wind from NNO
Vent: NNO 24 km/h
Température: 6°C
Température ressentie: 2°C
Point de rosée: 3°C
Humidité: 81%
Baromètre: 1015 hPa
Résumé: pluie légère, Showers
Ciel: plutôt nuageux
Visibilité: 10 km
Détails du ciel: quelques nuages 610 m
plutôt nuageux 1219 m
2024/04/24 02:20 EBOS 240220Z 34013KT 9999 -SHRA FEW020 BKN040 06/03 Q1015 NOSIG
EBFN - Koksijde, Belgium
Distance de la station: NO 140km
Mise à jour: 24/04/2024 04:22
Light drizzle, plutôt nuageux
Light drizzle, plutôt nuageux
 Wind from NNO
Vent: NNO 26 km/h, Rafale: 48 km/h
Température: 6°C
Température ressentie: 2°C
Point de rosée: 3°C
Humidité: 81%
Baromètre: 1015 hPa
Résumé: Light Drizzle
Ciel: plutôt nuageux
Visibilité: 7 km
Détails du ciel: quelques nuages 762 m
partiellement nuageux 1036 m
plutôt nuageux 1158 m
2024/04/24 02:22 EBFN 240222Z AUTO 34014G26KT 7000 -DZ FEW025/// SCT034/// BKN038/// 06/03 Q1015 WHT
 
ETNG - Geilenkirchen, Germany
Distance de la station: ENE 142km
Mise à jour: 24/04/2024 03:59
pluie légère, Showers, plutôt nuageux
pluie légère, Showers, plutôt nuageux
 Wind from NO
Vent: NO 15 km/h
Température: 4°C
Température ressentie: 1°C
Point de rosée: 3°C
Humidité: 93%
Baromètre: 1012 hPa
Résumé: pluie légère, Showers
Ciel: plutôt nuageux
Visibilité: 4 km
Détails du ciel: quelques nuages 213 m
partiellement nuageux 366 m
plutôt nuageux 914 m
2024/04/24 01:59 ETNG 240159Z 31008KT 4000 -SHRA FEW007 SCT012 BKN030 04/03 Q1012
EHGR - Gilze-Rijen, Netherlands
Distance de la station: NNE 143km
Mise à jour: 24/04/2024 04:25
plutôt nuageux
plutôt nuageux
 Wind from O
Vent: O 7 km/h
Température: 4°C
Température ressentie: 2°C
Point de rosée: 3°C
Humidité: 93%
Baromètre: 1013 hPa
Ciel: plutôt nuageux
Visibilité: 10 km
Détails du ciel: quelques nuages 457 m
plutôt nuageux 945 m
plutôt nuageux 1067 m
2024/04/24 02:25 EHGR 240225Z AUTO 27004KT 9999 FEW015CB BKN031 BKN035 04/03 Q1013 BLU
EHEH - Eindhoven, Netherlands
Distance de la station: NNE 147km
Mise à jour: 24/04/2024 04:25
plutôt nuageux
plutôt nuageux
 Wind from O
Vent: O 11 km/h
Température: 5°C
Température ressentie: 2°C
Point de rosée: 3°C
Humidité: 87%
Baromètre: 1012 hPa
Ciel: plutôt nuageux
Visibilité: 10 km
Détails du ciel: plutôt nuageux 1250 m
plutôt nuageux 1798 m
plutôt nuageux 1981 m
2024/04/24 02:25 EHEH 240225Z AUTO 26006KT 240V310 9999 BKN041 BKN059 BKN065 05/03 Q1012 BLU
 
ELLX - Luxembourg, Luxembourg
Distance de la station: ESE 162km
Mise à jour: 24/04/2024 04:20
plutôt nuageux
plutôt nuageux
 Wind from O
Vent: O 13 km/h
Température: 4°C
Température ressentie: 1°C
Point de rosée: -2°C
Humidité: 65%
Baromètre: 1012 hPa
Ciel: plutôt nuageux
Visibilité: 10 km
Détails du ciel: partiellement nuageux 549 m
plutôt nuageux 610 m
plutôt nuageux 823 m
2024/04/24 02:20 ELLX 240220Z AUTO 26007KT 9999 SCT018/// BKN020/// BKN027/// 04/M02 Q1012 NOSIG
EHVK - Volkel, Netherlands
Distance de la station: NE 174km
Mise à jour: 24/04/2024 04:25
plutôt nuageux
plutôt nuageux
 Wind from O
Vent: O 9 km/h
Température: 5°C
Température ressentie: 3°C
Point de rosée: 3°C
Humidité: 87%
Baromètre: 1012 hPa
Ciel: plutôt nuageux
Visibilité: 10 km
Détails du ciel: quelques nuages 853 m
partiellement nuageux 945 m
plutôt nuageux 1097 m
2024/04/24 02:25 EHVK 240225Z AUTO 27005KT 230V300 9999 FEW028 SCT031 BKN036 05/03 Q1012 BLU
LFOK - Chalons/Vatry, France
Distance de la station: S 174km
Mise à jour: 24/04/2024 04:30
plutôt nuageux
plutôt nuageux
 Wind from O
Vent: O 9 km/h
Température: 4°C
Température ressentie: 2°C
Point de rosée: 2°C
Humidité: 87%
Baromètre: 1015 hPa
Ciel: plutôt nuageux
Visibilité: 10 km
Détails du ciel: partiellement nuageux 518 m
plutôt nuageux 762 m
plutôt nuageux 1189 m
2024/04/24 02:30 LFOK 240230Z AUTO 26005KT 9999 SCT017 BKN025 BKN039 04/02 Q1015 TEMPO BKN008 BKN012
Script from Saratoga-Weather.org